Impacts TAF Board
For situational awareness. Not to be used for flight planning purposes.
IDs:

KFXE - Ft Lauderdale/Execut, FL, US

Issued at 2048 UTC 30 Jun 2022
Updated at 2306 UTC 30 Jun 2022
Potential Impact None Slight Moderate High
Time2253Z 01/00Z 01/01Z 01/02Z 01/03Z 01/04Z 01/05Z 01/06Z 01/07Z 01/08Z 01/09Z 01/10Z 01/11Z 01/12Z>>
Type OBS PRVL PRVL PRVL PRVL PRVL PRVL PRVL PRVL PRVL PRVL PRVL PRVL PRVL
VIS 10 >6 >6 >6 >6 >6 >6 >6 >6 >6 >6 >6 >6 >6
CIG -- -- -- -- -- -- -- -- -- -- -- -- -- --
Cover SCT SCT SCT SCT SCT SCT SCT SCT SCT SCT SCT SCT SCT SCT
FltCat VFR VFR VFR VFR VFR VFR VFR VFR VFR VFR VFR VFR VFR VFR
WX -- -- -- -- -- -- -- -- -- -- -- -- -- --
WDir 110 100 100 100 100 100 100 VRB VRB VRB VRB VRB VRB VRB
WSpd 10 7 7 7 7 7 7 4 4 4 4 4 4 4
WGst -- -- -- -- -- -- -- -- -- -- -- -- -- --
WSHgt -- -- -- -- -- -- -- -- -- -- -- -- -- --
WSDir -- -- -- -- -- -- -- -- -- -- -- -- -- --
WSSpd -- -- -- -- -- -- -- -- -- -- -- -- -- --
Raw TAF
KFXE 302048Z 3021/0118 12011KT P6SM VCTS SCT030CB BKN050
  FM302200 10007KT P6SM SCT030 SCT250
  FM010600 VRB04KT P6SM FEW025 SCT250
  FM011400 11009KT P6SM VCSH SCT030 SCT250


Raw METAR
KFXE 302253Z 11010KT 10SM SCT030 SCT075 30/23 A3008 RMK AO2 SLP188 T03000233
KFXE 302153Z 13010KT 10SM SCT031 31/24 A3008 RMK AO2 SLP187 T03110239
KFXE 302053Z 14010KT 10SM FEW028 32/24 A3008 RMK AO2 SLP188 T03170239 55008

METAR Board
Radar Display
Forecast Discussion
For situational awareness. Not to be used for flight planning purposes.